Time;durP1;ratioP1;P1;durP2;ratioP2;P2;SDS_P1;SDS_P2;PMS_P1;PMS_P2;Temp;Humidity;BMP_temperature;BMP_pressure;BME280_temperature;BME280_humidity;BME280_pressure;Samples;Min_cycle;Max_cycle;Signal;HPM_P1;HPM_P2
2022/06/26 00:00:19;;;;;;;3.47;1.83;;;17.20;99.90;;;;;;4951988;28;20039;-69
2022/06/26 00:02:46;;;;;;;2.90;2.15;;;17.10;99.90;;;;;;4956303;28;20034;-71
2022/06/26 00:05:12;;;;;;;2.00;1.90;;;17.00;99.90;;;;;;4953502;28;20027;-71
2022/06/26 00:07:38;;;;;;;1.77;1.52;;;17.00;99.90;;;;;;4955597;28;20061;-70
2022/06/26 00:10:06;;;;;;;1.98;1.73;;;17.00;99.90;;;;;;4956705;28;20034;-71
2022/06/26 00:12:32;;;;;;;3.42;1.42;;;16.90;99.90;;;;;;4953801;28;20608;-70
2022/06/26 00:14:58;;;;;;;2.97;1.70;;;16.90;99.90;;;;;;4958523;28;20031;-71
2022/06/26 00:17:23;;;;;;;3.08;1.75;;;16.90;99.90;;;;;;4955144;28;20038;-71
2022/06/26 00:19:49;;;;;;;1.75;1.65;;;16.80;99.90;;;;;;4958711;28;20034;-71
2022/06/26 00:22:14;;;;;;;6.57;1.88;;;16.80;99.90;;;;;;4960030;28;20051;-69
2022/06/26 00:24:42;;;;;;;3.92;1.50;;;16.80;99.90;;;;;;4957855;28;20039;-69
2022/06/26 00:27:08;;;;;;;2.90;1.70;;;16.80;99.90;;;;;;4957990;28;20035;-69
2022/06/26 00:29:34;;;;;;;4.15;1.80;;;16.70;99.90;;;;;;4956018;28;20039;-69
2022/06/26 00:32:01;;;;;;;5.05;1.25;;;16.90;99.90;;;;;;4959908;28;20156;-68
2022/06/26 00:34:27;;;;;;;2.30;1.27;;;16.90;99.90;;;;;;4948710;28;20688;-69
2022/06/26 00:36:53;;;;;;;4.10;1.27;;;16.80;99.90;;;;;;4955416;28;20023;-69
2022/06/26 00:39:19;;;;;;;7.25;1.50;;;16.80;99.90;;;;;;4958832;28;20681;-69
2022/06/26 00:41:45;;;;;;;6.93;1.40;;;16.70;99.90;;;;;;4957753;28;20035;-71
2022/06/26 00:44:16;;;;;;;6.40;1.27;;;16.70;99.90;;;;;;4956233;28;20164;-70
2022/06/26 00:46:42;;;;;;;2.97;1.30;;;16.70;99.90;;;;;;4956858;28;20034;-70
2022/06/26 00:49:08;;;;;;;4.78;1.00;;;16.70;99.90;;;;;;4955977;28;20038;-71
2022/06/26 00:51:36;;;;;;;2.42;1.02;;;16.60;99.90;;;;;;4953559;28;20041;-70
2022/06/26 00:54:02;;;;;;;1.42;0.90;;;16.60;99.90;;;;;;4960989;28;20400;-70
2022/06/26 00:56:27;;;;;;;2.60;1.10;;;16.60;99.90;;;;;;4957927;28;20023;-71
2022/06/26 00:58:53;;;;;;;11.13;1.40;;;16.60;99.90;;;;;;4959065;28;20030;-70
2022/06/26 01:01:19;;;;;;;3.58;1.30;;;16.50;99.90;;;;;;4957351;28;20122;-71
2022/06/26 01:03:44;;;;;;;4.95;1.13;;;16.50;99.90;;;;;;4961062;28;20033;-71
2022/06/26 01:06:10;;;;;;;3.22;0.90;;;16.60;99.90;;;;;;4957680;28;20499;-70
2022/06/26 01:08:36;;;;;;;1.95;1.10;;;16.50;99.90;;;;;;4953080;28;20116;-70
2022/06/26 01:11:17;;;;;;;2.60;1.10;;;16.50;99.90;;;;;;4959181;28;20037;-71
2022/06/26 01:13:50;;;;;;;3.20;1.05;;;16.50;99.90;;;;;;4955309;28;20065;-70
2022/06/26 01:16:17;;;;;;;3.40;1.10;;;16.50;99.90;;;;;;4951559;28;20058;-71
2022/06/26 01:18:44;;;;;;;1.00;1.00;;;16.40;99.90;;;;;;4954649;28;20521;-70
2022/06/26 01:21:10;;;;;;;8.13;1.50;;;16.40;99.90;;;;;;4953026;28;20047;-71
2022/06/26 01:23:36;;;;;;;1.42;1.13;;;16.40;99.90;;;;;;4955686;28;20026;-71
2022/06/26 01:26:03;;;;;;;1.95;1.08;;;16.30;99.90;;;;;;4953592;28;20535;-71
2022/06/26 01:28:28;;;;;;;3.03;1.33;;;16.40;99.90;;;;;;4955408;28;20044;-71
2022/06/26 01:30:55;;;;;;;2.15;0.93;;;16.30;99.90;;;;;;4957094;28;20476;-71
2022/06/26 01:33:21;;;;;;;3.53;1.20;;;16.30;99.90;;;;;;4957693;28;20047;-71
2022/06/26 01:35:47;;;;;;;3.35;1.13;;;16.30;99.90;;;;;;4957637;28;20050;-71
2022/06/26 01:38:14;;;;;;;2.03;1.25;;;16.30;99.90;;;;;;4958539;28;20125;-71
2022/06/26 01:40:42;;;;;;;9.95;1.42;;;16.30;99.90;;;;;;4956007;28;20049;-71
2022/06/26 01:43:08;;;;;;;14.60;2.35;;;16.30;99.90;;;;;;4954082;28;20046;-70
2022/06/26 01:45:40;;;;;;;10.10;1.67;;;16.20;99.90;;;;;;4955327;28;20042;-71
2022/06/26 01:48:06;;;;;;;15.32;1.42;;;16.10;99.90;;;;;;4958652;28;20058;-71
2022/06/26 01:50:31;;;;;;;11.82;1.30;;;16.00;99.90;;;;;;4958338;28;20416;-70
2022/06/26 01:52:57;;;;;;;14.68;2.30;;;16.00;99.90;;;;;;4958897;28;20535;-70
2022/06/26 01:55:23;;;;;;;8.25;1.60;;;16.00;99.90;;;;;;4958299;28;20031;-70
2022/06/26 01:57:48;;;;;;;5.20;1.20;;;16.00;99.90;;;;;;4951163;28;20041;-69
2022/06/26 02:00:14;;;;;;;3.35;1.30;;;16.00;99.90;;;;;;4955124;28;20396;-69
2022/06/26 02:02:40;;;;;;;5.88;1.20;;;16.00;99.90;;;;;;4950622;28;20035;-69
2022/06/26 02:05:06;;;;;;;2.00;1.20;;;16.00;99.90;;;;;;4954620;28;20411;-69
2022/06/26 02:07:31;;;;;;;5.85;1.35;;;15.90;99.90;;;;;;4954367;28;20035;-69
2022/06/26 02:15:25;;;;;;;2.65;1.15;;;15.80;99.90;;;;;;4954444;28;20043;-69
2022/06/26 02:17:51;;;;;;;6.95;1.20;;;15.80;99.90;;;;;;4954054;28;20049;-69
2022/06/26 02:20:16;;;;;;;2.17;1.05;;;15.80;99.90;;;;;;4951512;28;20058;-69
2022/06/26 02:22:42;;;;;;;10.65;1.15;;;15.80;99.90;;;;;;4950281;28;20109;-69
2022/06/26 02:25:08;;;;;;;2.35;0.93;;;15.80;99.90;;;;;;4952008;28;20035;-69
2022/06/26 02:27:34;;;;;;;3.58;1.27;;;15.80;99.90;;;;;;4951388;28;20404;-69
2022/06/26 02:30:00;;;;;;;6.05;1.00;;;15.80;99.90;;;;;;4949616;28;20027;-69
2022/06/26 02:32:26;;;;;;;5.63;1.27;;;15.80;99.90;;;;;;4949953;28;20034;-69
2022/06/26 02:34:52;;;;;;;8.65;1.10;;;15.80;99.90;;;;;;4953781;28;20776;-69
2022/06/26 02:37:17;;;;;;;2.83;0.80;;;15.80;99.90;;;;;;4953479;28;20031;-68
2022/06/26 02:39:43;;;;;;;3.67;1.00;;;15.80;99.90;;;;;;4950801;28;20486;-69
2022/06/26 02:42:08;;;;;;;1.48;0.98;;;15.80;99.90;;;;;;4951374;28;20466;-69
2022/06/26 02:44:34;;;;;;;5.90;1.08;;;15.70;99.90;;;;;;4950404;28;20031;-70
2022/06/26 02:47:00;;;;;;;4.80;1.10;;;15.60;99.90;;;;;;4952794;28;20046;-70
2022/06/26 02:49:26;;;;;;;3.30;1.15;;;15.70;99.90;;;;;;4951927;28;20035;-70
2022/06/26 02:51:52;;;;;;;2.88;1.02;;;15.70;99.90;;;;;;4950654;28;20469;-70
2022/06/26 02:54:17;;;;;;;10.80;1.40;;;15.70;99.90;;;;;;4954632;28;20419;-69
2022/06/26 02:56:43;;;;;;;2.90;1.20;;;15.70;99.90;;;;;;4955652;28;20038;-71
2022/06/26 02:59:08;;;;;;;1.30;1.05;;;15.80;99.90;;;;;;4956000;28;20034;-70
2022/06/26 03:01:34;;;;;;;5.05;1.10;;;15.80;99.90;;;;;;4961551;28;20034;-70
2022/06/26 03:04:00;;;;;;;1.95;1.38;;;15.90;99.90;;;;;;4953424;28;20034;-70
2022/06/26 03:06:25;;;;;;;1.83;0.98;;;15.90;99.90;;;;;;4956227;28;20106;-70
2022/06/26 03:08:51;;;;;;;3.03;1.35;;;15.90;99.90;;;;;;4955866;28;20059;-70
2022/06/26 03:11:16;;;;;;;2.00;1.23;;;15.80;99.90;;;;;;4959490;28;20380;-71
2022/06/26 03:13:42;;;;;;;1.23;1.13;;;15.80;99.90;;;;;;4953593;28;20045;-69
2022/06/26 03:16:08;;;;;;;2.65;1.13;;;15.90;99.90;;;;;;4956728;28;20038;-68
2022/06/26 03:18:33;;;;;;;1.85;1.00;;;15.90;99.90;;;;;;4954869;28;20030;-68
2022/06/26 03:20:59;;;;;;;4.85;1.02;;;15.90;99.90;;;;;;4957020;28;20054;-68
2022/06/26 03:24:01;;;;;;;1.95;1.10;;;15.80;99.90;;;;;;4953765;28;20050;-68
2022/06/26 03:26:10;;;;;;;1.33;1.00;;;15.80;99.90;;;;;;4953874;28;20437;-68
2022/06/26 03:28:36;;;;;;;2.22;0.98;;;15.70;99.90;;;;;;4956920;28;20039;-68
2022/06/26 03:31:02;;;;;;;1.10;0.80;;;15.60;99.90;;;;;;4957815;28;20027;-68
2022/06/26 03:33:27;;;;;;;1.20;1.10;;;15.70;99.90;;;;;;4956186;28;20821;-70
2022/06/26 03:35:53;;;;;;;1.90;1.13;;;15.70;99.90;;;;;;4957478;28;20036;-70
2022/06/26 03:38:18;;;;;;;2.97;1.20;;;15.70;99.90;;;;;;4953711;28;20038;-71
2022/06/26 03:40:44;;;;;;;5.28;2.15;;;15.70;99.90;;;;;;4956285;28;20027;-71
2022/06/26 03:43:11;;;;;;;1.08;0.98;;;15.80;99.90;;;;;;4953255;28;20037;-70
2022/06/26 03:45:38;;;;;;;1.30;1.00;;;15.90;99.90;;;;;;4956577;28;20043;-70
2022/06/26 03:48:04;;;;;;;2.75;1.40;;;15.90;99.90;;;;;;4959641;28;20042;-70
2022/06/26 03:50:30;;;;;;;1.75;1.00;;;16.00;99.90;;;;;;4954425;28;20035;-70
2022/06/26 03:52:55;;;;;;;2.08;1.23;;;16.00;99.90;;;;;;4954331;28;20408;-68
2022/06/26 03:55:21;;;;;;;1.30;1.20;;;16.00;99.90;;;;;;4952593;28;20507;-68
2022/06/26 03:57:47;;;;;;;5.78;1.30;;;16.00;99.90;;;;;;4953382;28;20147;-68
2022/06/26 04:00:14;;;;;;;1.80;1.17;;;16.10;99.90;;;;;;4954403;28;20037;-68
2022/06/26 04:02:40;;;;;;;2.78;1.40;;;16.20;99.90;;;;;;4956720;28;20049;-68
2022/06/26 04:05:07;;;;;;;2.53;1.30;;;16.20;99.90;;;;;;4954071;28;20027;-68
2022/06/26 04:07:32;;;;;;;3.20;1.30;;;16.30;99.90;;;;;;4958907;28;20024;-68
2022/06/26 04:09:58;;;;;;;2.80;1.20;;;16.30;99.90;;;;;;4955568;28;20042;-68
2022/06/26 04:12:24;;;;;;;9.13;1.42;;;16.40;99.90;;;;;;4956655;28;20114;-69
2022/06/26 04:14:50;;;;;;;1.75;1.10;;;16.40;99.90;;;;;;4954360;28;20082;-69
2022/06/26 04:17:16;;;;;;;3.90;1.48;;;16.40;99.90;;;;;;4954211;28;20812;-68
2022/06/26 04:19:41;;;;;;;1.65;1.55;;;16.50;99.90;;;;;;4957893;28;20449;-68
2022/06/26 04:22:07;;;;;;;1.80;1.70;;;16.60;99.90;;;;;;4958151;28;20039;-68
2022/06/26 04:24:33;;;;;;;6.00;1.83;;;16.70;99.90;;;;;;4956618;28;20019;-68
2022/06/26 04:26:59;;;;;;;1.75;1.42;;;16.70;99.90;;;;;;4954487;28;20551;-68
2022/06/26 04:29:24;;;;;;;3.20;1.50;;;16.70;99.90;;;;;;4955762;28;20042;-68
2022/06/26 04:31:50;;;;;;;2.45;1.65;;;16.70;99.90;;;;;;4957729;28;20030;-70
2022/06/26 04:34:16;;;;;;;7.28;1.90;;;16.80;99.90;;;;;;4954821;28;20034;-70
2022/06/26 04:36:42;;;;;;;6.03;1.60;;;16.80;99.90;;;;;;4950166;28;20027;-70
2022/06/26 04:39:08;;;;;;;2.85;1.67;;;16.90;99.90;;;;;;4954754;28;20383;-70
2022/06/26 04:41:36;;;;;;;4.28;1.75;;;17.10;99.90;;;;;;4953539;28;20035;-70
2022/06/26 04:44:10;;;;;;;6.38;1.88;;;17.30;99.90;;;;;;4956935;28;20113;-70
2022/06/26 04:46:37;;;;;;;5.32;1.92;;;17.40;99.90;;;;;;4956395;28;20027;-70
2022/06/26 04:49:03;;;;;;;3.90;2.25;;;17.50;99.90;;;;;;4957982;28;20046;-68
2022/06/26 04:51:29;;;;;;;3.50;2.25;;;17.60;99.90;;;;;;4955287;28;20038;-69
2022/06/26 04:53:55;;;;;;;4.97;2.38;;;17.60;99.90;;;;;;4956771;28;20034;-68
2022/06/26 04:56:21;;;;;;;3.47;2.38;;;17.70;99.90;;;;;;4961149;28;20058;-68
2022/06/26 04:58:47;;;;;;;4.75;2.47;;;17.80;99.90;;;;;;4960798;28;20031;-68
2022/06/26 05:01:14;;;;;;;2.40;2.20;;;17.90;99.90;;;;;;4960474;28;20030;-69
2022/06/26 05:03:40;;;;;;;2.85;2.30;;;18.00;99.90;;;;;;4960562;28;20711;-68
2022/06/26 05:06:05;;;;;;;2.33;2.00;;;18.10;99.90;;;;;;4958497;28;20027;-68
2022/06/26 05:08:31;;;;;;;2.33;1.80;;;18.20;99.90;;;;;;4958107;28;20061;-71
2022/06/26 05:10:56;;;;;;;2.60;1.85;;;18.30;99.90;;;;;;4959162;28;21333;-71
2022/06/26 05:13:22;;;;;;;3.17;1.58;;;18.30;99.90;;;;;;4961596;28;20045;-71
2022/06/26 05:15:48;;;;;;;4.50;1.63;;;18.40;99.90;;;;;;4954760;28;20110;-71
2022/06/26 05:18:14;;;;;;;3.25;1.70;;;18.50;99.90;;;;;;4957207;28;20038;-71
2022/06/26 05:20:40;;;;;;;1.98;1.55;;;18.60;99.90;;;;;;4957502;28;20043;-70
2022/06/26 05:23:07;;;;;;;3.13;2.03;;;18.70;99.90;;;;;;4957014;28;20046;-70
2022/06/26 05:25:33;;;;;;;3.85;2.33;;;18.70;99.90;;;;;;4954607;28;20031;-70
2022/06/26 05:27:59;;;;;;;2.65;1.70;;;18.70;99.90;;;;;;4960970;28;20074;-68
2022/06/26 05:30:25;;;;;;;1.88;1.60;;;18.70;99.90;;;;;;4957145;28;20065;-68
2022/06/26 05:32:50;;;;;;;1.73;1.40;;;18.80;99.90;;;;;;4957027;28;20166;-68
2022/06/26 05:35:16;;;;;;;10.27;2.17;;;18.90;99.90;;;;;;4955788;28;20027;-68
2022/06/26 05:37:42;;;;;;;2.05;1.90;;;19.00;99.90;;;;;;4959401;28;20018;-68
2022/06/26 05:40:08;;;;;;;4.10;2.20;;;19.10;99.90;;;;;;4959841;28;20038;-68
2022/06/26 05:42:34;;;;;;;2.63;2.22;;;19.30;99.90;;;;;;4956159;28;20479;-68
2022/06/26 05:44:59;;;;;;;2.25;2.05;;;19.50;99.90;;;;;;4960899;28;20081;-68
2022/06/26 05:47:25;;;;;;;2.80;2.30;;;19.60;99.90;;;;;;4956337;28;20134;-70
2022/06/26 05:49:51;;;;;;;2.67;1.85;;;19.80;99.90;;;;;;4959289;28;20030;-71
2022/06/26 05:52:16;;;;;;;4.38;1.75;;;19.90;99.90;;;;;;4958176;28;20022;-66
2022/06/26 05:54:42;;;;;;;3.05;1.30;;;19.80;99.90;;;;;;4957592;28;20031;-71
2022/06/26 05:57:07;;;;;;;3.35;1.40;;;19.90;99.90;;;;;;4960793;28;20030;-71
2022/06/26 05:59:33;;;;;;;4.15;1.75;;;19.90;99.90;;;;;;4955935;28;20388;-70
2022/06/26 06:01:59;;;;;;;2.20;1.08;;;19.90;99.90;;;;;;4958023;28;20081;-70
2022/06/26 06:04:24;;;;;;;1.58;1.42;;;19.90;99.90;;;;;;4955900;28;20101;-71
2022/06/26 06:06:50;;;;;;;1.77;1.10;;;20.10;99.90;;;;;;4954399;28;20057;-67
2022/06/26 06:09:15;;;;;;;1.17;0.90;;;20.20;99.90;;;;;;4960085;28;20047;-67
2022/06/26 06:11:41;;;;;;;1.13;1.02;;;20.40;99.90;;;;;;4955341;28;20034;-67
2022/06/26 06:14:07;;;;;;;1.90;1.20;;;20.50;99.90;;;;;;4956085;28;20027;-67
2022/06/26 06:16:33;;;;;;;1.58;1.23;;;20.70;99.90;;;;;;4953010;28;20096;-67
2022/06/26 06:18:58;;;;;;;2.90;1.30;;;20.90;99.90;;;;;;4957554;28;20035;-67
2022/06/26 06:21:24;;;;;;;1.48;1.13;;;21.00;99.90;;;;;;4957287;28;20109;-67
2022/06/26 06:23:50;;;;;;;5.18;2.58;;;21.10;99.90;;;;;;4958000;28;20563;-67
2022/06/26 06:26:16;;;;;;;2.53;1.40;;;21.20;99.90;;;;;;4952901;28;20122;-71
2022/06/26 06:28:41;;;;;;;2.17;1.10;;;21.30;99.90;;;;;;4958475;28;20390;-70
2022/06/26 06:31:07;;;;;;;1.58;1.48;;;21.30;99.90;;;;;;4960023;28;20086;-70
2022/06/26 06:33:33;;;;;;;2.58;1.60;;;21.40;99.90;;;;;;4958066;28;20062;-71
2022/06/26 06:35:58;;;;;;;1.40;1.23;;;21.40;99.90;;;;;;4954859;28;20034;-73
2022/06/26 06:38:25;;;;;;;1.27;1.27;;;21.60;99.90;;;;;;4957718;28;20572;-71
2022/06/26 06:40:51;;;;;;;2.00;1.45;;;21.70;99.90;;;;;;4957877;28;20085;-71
2022/06/26 06:43:17;;;;;;;3.20;1.38;;;21.70;99.90;;;;;;4954588;28;20428;-68
2022/06/26 06:45:42;;;;;;;2.17;1.30;;;21.70;99.90;;;;;;4955227;28;20051;-68
2022/06/26 06:48:08;;;;;;;1.65;1.30;;;21.80;99.90;;;;;;4953382;28;20054;-67
2022/06/26 06:50:35;;;;;;;3.42;1.65;;;21.90;99.90;;;;;;4955387;28;20058;-68
2022/06/26 06:53:01;;;;;;;2.88;1.30;;;21.80;99.90;;;;;;4955448;28;20066;-68
2022/06/26 06:55:26;;;;;;;4.65;1.70;;;21.90;99.90;;;;;;4958366;28;20047;-68
2022/06/26 06:57:52;;;;;;;2.28;1.50;;;21.90;99.90;;;;;;4956698;28;20050;-67
2022/06/26 07:00:18;;;;;;;8.07;2.13;;;22.00;99.90;;;;;;4956551;28;20037;-68
2022/06/26 07:02:43;;;;;;;2.75;1.58;;;22.20;99.90;;;;;;4954129;28;20126;-70
2022/06/26 07:05:09;;;;;;;3.28;1.58;;;22.30;99.90;;;;;;4952453;28;20030;-71
2022/06/26 07:07:36;;;;;;;1.90;1.67;;;22.30;99.90;;;;;;4953240;28;20047;-71
2022/06/26 07:10:03;;;;;;;1.70;1.60;;;22.30;99.90;;;;;;4955695;28;20023;-71
2022/06/26 07:12:29;;;;;;;5.28;1.80;;;22.40;99.90;;;;;;4953444;28;20081;-71
2022/06/26 07:14:54;;;;;;;5.35;2.03;;;22.50;99.90;;;;;;4953230;28;20035;-72
2022/06/26 07:17:22;;;;;;;2.30;1.70;;;22.60;99.90;;;;;;4954254;28;20121;-72
2022/06/26 07:19:48;;;;;;;2.35;1.60;;;22.80;99.90;;;;;;4956357;28;20035;-72
2022/06/26 07:22:14;;;;;;;2.35;1.55;;;22.80;99.90;;;;;;4956371;28;20804;-68
2022/06/26 07:24:39;;;;;;;3.55;1.50;;;22.80;99.90;;;;;;4959032;28;20043;-69
2022/06/26 07:27:06;;;;;;;1.40;1.30;;;22.90;99.90;;;;;;4955713;28;20517;-68
2022/06/26 07:29:32;;;;;;;2.63;1.30;;;22.90;99.90;;;;;;4958260;28;20062;-68
2022/06/26 07:31:58;;;;;;;2.20;1.35;;;23.10;99.90;;;;;;4951953;28;20866;-70
2022/06/26 07:34:25;;;;;;;1.77;1.35;;;23.20;99.90;;;;;;4943856;28;20073;-71
2022/06/26 07:36:51;;;;;;;1.35;1.25;;;23.30;99.90;;;;;;4952737;28;20022;-70
2022/06/26 07:39:19;;;;;;;3.72;1.52;;;23.40;99.90;;;;;;4958148;28;20461;-70
2022/06/26 07:41:47;;;;;;;1.73;1.63;;;23.50;99.90;;;;;;4954009;28;20035;-67
2022/06/26 07:44:13;;;;;;;1.35;1.15;;;23.50;99.90;;;;;;4950034;28;21865;-67
2022/06/26 07:46:39;;;;;;;2.35;1.30;;;23.60;99.90;;;;;;4952045;28;20034;-68
2022/06/26 07:49:06;;;;;;;2.03;1.52;;;23.80;99.90;;;;;;4950285;28;20074;-67
2022/06/26 07:51:32;;;;;;;1.98;1.60;;;23.90;99.90;;;;;;4952201;28;20488;-66
2022/06/26 07:53:59;;;;;;;3.13;1.23;;;23.90;99.90;;;;;;4953585;28;20035;-67
2022/06/26 07:56:25;;;;;;;4.78;1.40;;;24.00;99.90;;;;;;4953508;28;20026;-66
2022/06/26 07:58:52;;;;;;;1.35;1.20;;;24.10;99.90;;;;;;4953438;28;20023;-67
2022/06/26 08:01:18;;;;;;;2.05;1.58;;;24.10;99.90;;;;;;4950432;28;20070;-68
2022/06/26 08:03:44;;;;;;;1.20;1.10;;;24.30;99.90;;;;;;4952880;28;20066;-69
2022/06/26 08:06:10;;;;;;;4.82;1.10;;;24.40;99.90;;;;;;4954089;28;20034;-68
2022/06/26 08:08:37;;;;;;;5.15;2.08;;;24.50;99.90;;;;;;4950485;28;20988;-68
2022/06/26 08:11:03;;;;;;;1.60;1.35;;;24.50;99.90;;;;;;4955128;28;20105;-69
2022/06/26 08:13:29;;;;;;;2.67;1.23;;;24.50;99.90;;;;;;4954170;28;20555;-68
2022/06/26 08:15:55;;;;;;;2.00;1.77;;;24.50;99.90;;;;;;4953680;28;20026;-68
2022/06/26 08:18:20;;;;;;;3.05;1.30;;;24.60;99.90;;;;;;4951723;28;20038;-69
2022/06/26 08:20:46;;;;;;;1.55;1.45;;;24.80;99.90;;;;;;4952770;28;20473;-68
2022/06/26 08:23:12;;;;;;;2.22;1.30;;;24.90;99.90;;;;;;4951412;28;20042;-68
2022/06/26 08:25:38;;;;;;;1.30;1.20;;;25.00;99.90;;;;;;4957899;28;20058;-68
2022/06/26 08:28:04;;;;;;;1.20;1.10;;;25.10;99.90;;;;;;4951902;28;20800;-69
2022/06/26 08:30:29;;;;;;;4.78;1.30;;;25.10;99.90;;;;;;4956858;28;20031;-69
2022/06/26 08:32:58;;;;;;;1.95;1.15;;;25.20;99.90;;;;;;4953971;28;20030;-69
2022/06/26 08:35:25;;;;;;;1.85;1.15;;;25.20;99.90;;;;;;4961215;28;20110;-67
2022/06/26 08:37:51;;;;;;;1.58;1.23;;;25.30;99.90;;;;;;4958444;28;20126;-69
2022/06/26 08:40:17;;;;;;;2.40;1.15;;;25.20;99.90;;;;;;4960638;28;20117;-69
2022/06/26 08:42:45;;;;;;;1.10;1.10;;;25.20;99.90;;;;;;4957858;28;20117;-70
2022/06/26 08:45:12;;;;;;;1.30;1.10;;;25.20;99.10;;;;;;4952170;28;20085;-70
2022/06/26 08:47:41;;;;;;;2.13;1.17;;;25.10;99.70;;;;;;4953265;28;20408;-68
2022/06/26 08:50:08;;;;;;;1.35;1.05;;;25.20;99.90;;;;;;4959035;28;20031;-69
2022/06/26 08:52:34;;;;;;;1.27;1.10;;;25.30;99.80;;;;;;4957126;28;20018;-69
2022/06/26 08:55:04;;;;;;;3.15;1.27;;;25.30;99.20;;;;;;4954240;28;20030;-68
2022/06/26 08:57:30;;;;;;;1.23;1.13;;;25.40;99.50;;;;;;4958859;28;20605;-69
2022/06/26 08:59:56;;;;;;;1.90;1.15;;;25.40;99.90;;;;;;4958404;28;20022;-69
2022/06/26 09:02:22;;;;;;;1.67;0.95;;;25.50;99.90;;;;;;4959610;28;20030;-71
2022/06/26 09:04:47;;;;;;;3.45;1.23;;;25.60;99.90;;;;;;4958030;28;20058;-69
2022/06/26 09:07:13;;;;;;;2.40;1.23;;;25.60;98.80;;;;;;4956157;28;20038;-68
2022/06/26 09:09:39;;;;;;;1.45;1.20;;;25.60;99.30;;;;;;4955735;28;20337;-69
2022/06/26 09:12:06;;;;;;;1.42;1.13;;;25.60;99.00;;;;;;4960323;28;20031;-70
2022/06/26 09:14:31;;;;;;;3.22;1.40;;;25.70;99.70;;;;;;4958503;28;20027;-68
2022/06/26 09:16:58;;;;;;;1.75;1.40;;;25.90;99.30;;;;;;4961552;28;20029;-66
2022/06/26 09:19:33;;;;;;;2.38;1.23;;;25.90;99.40;;;;;;4952867;28;20023;-66
2022/06/26 09:22:06;;;;;;;2.65;1.30;;;26.00;98.60;;;;;;4955121;28;20043;-66
2022/06/26 09:24:36;;;;;;;1.80;1.08;;;26.00;97.70;;;;;;4956201;28;20502;-66
2022/06/26 09:27:07;;;;;;;1.30;1.10;;;25.90;98.20;;;;;;4955754;28;20063;-66
2022/06/26 09:29:33;;;;;;;1.20;1.10;;;26.00;98.50;;;;;;4957545;28;20122;-66
2022/06/26 09:32:13;;;;;;;3.55;1.23;;;26.10;99.40;;;;;;4963216;28;20105;-66
2022/06/26 09:34:47;;;;;;;4.65;1.20;;;26.20;98.40;;;;;;4972916;28;20037;-66
2022/06/26 09:37:14;;;;;;;3.75;1.45;;;26.20;98.60;;;;;;4955770;28;20108;-69
2022/06/26 09:39:40;;;;;;;2.15;1.13;;;26.30;97.20;;;;;;4956281;28;20039;-69
2022/06/26 09:42:18;;;;;;;1.42;1.10;;;26.40;96.70;;;;;;4957779;28;20119;-69
2022/06/26 09:44:52;;;;;;;2.25;1.20;;;26.50;96.80;;;;;;4937438;28;20085;-69
2022/06/26 09:47:24;;;;;;;1.42;0.77;;;26.60;96.30;;;;;;4958143;28;20058;-70
2022/06/26 09:49:53;;;;;;;3.47;0.95;;;26.60;94.80;;;;;;4950805;28;20057;-70
2022/06/26 09:52:24;;;;;;;1.10;1.00;;;26.60;95.00;;;;;;4954741;28;20022;-70
2022/06/26 09:54:52;;;;;;;1.10;0.82;;;26.60;95.60;;;;;;4950143;28;20039;-66
2022/06/26 09:57:18;;;;;;;4.05;1.60;;;26.70;93.40;;;;;;4951011;28;20073;-67
2022/06/26 09:59:44;;;;;;;1.92;1.13;;;26.70;94.60;;;;;;4946944;28;20039;-67
2022/06/26 10:07:49;;;;;;;0.70;0.70;;;26.80;91.10;;;;;;4956173;28;20066;-67
2022/06/26 10:10:17;;;;;;;2.33;0.50;;;26.80;88.30;;;;;;4950325;28;20441;-67
2022/06/26 10:12:54;;;;;;;1.75;0.55;;;26.90;86.40;;;;;;4956574;28;20023;-67
2022/06/26 10:15:23;;;;;;;0.40;0.40;;;27.10;83.40;;;;;;4952315;28;20496;-69
2022/06/26 10:18:00;;;;;;;0.98;0.57;;;27.10;83.70;;;;;;4953545;28;20022;-69
2022/06/26 10:20:29;;;;;;;2.15;0.63;;;27.10;80.70;;;;;;4956697;28;20038;-70
2022/06/26 10:22:55;;;;;;;0.57;0.50;;;27.10;86.70;;;;;;4956437;28;20011;-69
2022/06/26 10:25:31;;;;;;;1.40;0.60;;;27.20;80.70;;;;;;4948065;28;20042;-69
2022/06/26 10:27:58;;;;;;;0.77;0.40;;;27.30;81.00;;;;;;4953550;28;21637;-69
2022/06/26 10:30:26;;;;;;;1.42;0.60;;;27.30;76.10;;;;;;4946862;28;20141;-69
2022/06/26 10:33:07;;;;;;;1.50;0.80;;;27.40;73.20;;;;;;4949949;28;20154;-67
2022/06/26 10:35:47;;;;;;;0.90;0.57;;;27.40;69.70;;;;;;4949078;28;20053;-67
2022/06/26 10:38:27;;;;;;;2.33;0.70;;;27.50;69.80;;;;;;4952871;28;20114;-66
2022/06/26 10:44:09;;;;;;;1.15;0.60;;;27.50;71.70;;;;;;4951388;28;20050;-67
2022/06/26 10:46:37;;;;;;;1.30;1.15;;;27.40;74.70;;;;;;4952385;28;20027;-67
2022/06/26 10:49:08;;;;;;;6.93;1.25;;;27.40;75.20;;;;;;4955666;28;20400;-67
2022/06/26 10:51:37;;;;;;;1.75;1.02;;;27.50;73.10;;;;;;4952537;28;20023;-66
2022/06/26 10:54:03;;;;;;;1.42;0.70;;;27.50;75.70;;;;;;4947393;28;20022;-65
2022/06/26 10:56:29;;;;;;;2.28;0.88;;;27.50;75.60;;;;;;4953074;28;20022;-67
2022/06/26 10:59:00;;;;;;;2.78;0.90;;;27.60;73.60;;;;;;4944787;28;20074;-67
2022/06/26 11:01:27;;;;;;;1.60;0.67;;;27.60;75.80;;;;;;4952073;28;20046;-66
2022/06/26 11:03:53;;;;;;;7.95;1.13;;;27.60;72.90;;;;;;4945362;28;20023;-66
2022/06/26 11:06:19;;;;;;;14.77;1.40;;;27.80;72.20;;;;;;4940191;28;20041;-67
2022/06/26 11:08:50;;;;;;;1.20;0.68;;;27.80;69.60;;;;;;4945973;28;20100;-65
2022/06/26 11:11:31;;;;;;;1.20;0.73;;;27.90;70.80;;;;;;4950961;28;20134;-70
2022/06/26 11:14:08;;;;;;;1.17;0.70;;;28.00;72.60;;;;;;4951320;28;20428;-68
2022/06/26 11:16:38;;;;;;;2.03;0.70;;;28.10;73.30;;;;;;4951633;28;20283;-67
2022/06/26 11:19:06;;;;;;;0.88;0.65;;;28.20;73.10;;;;;;4956058;28;20055;-69
2022/06/26 11:21:32;;;;;;;1.67;0.50;;;28.30;71.80;;;;;;4950624;28;20031;-70
2022/06/26 11:23:59;;;;;;;2.38;0.50;;;28.30;71.90;;;;;;4954029;28;20058;-70
2022/06/26 11:26:25;;;;;;;1.60;0.50;;;28.30;68.00;;;;;;4951174;28;20082;-70
2022/06/26 11:29:02;;;;;;;4.47;0.68;;;28.40;64.10;;;;;;4952416;28;21637;-69
2022/06/26 11:31:30;;;;;;;0.82;0.50;;;28.30;60.60;;;;;;4952615;28;20026;-69
2022/06/26 11:34:15;;;;;;;2.53;0.50;;;28.30;66.00;;;;;;4953423;28;20041;-71
2022/06/26 11:36:56;;;;;;;17.92;2.20;;;28.30;65.50;;;;;;4949622;28;20032;-69
2022/06/26 11:39:24;;;;;;;2.00;0.52;;;28.30;64.00;;;;;;4956906;28;20057;-72
2022/06/26 11:41:50;;;;;;;4.63;0.70;;;28.30;65.40;;;;;;4955647;28;20101;-70
2022/06/26 11:44:16;;;;;;;0.93;0.50;;;28.30;66.60;;;;;;4940231;28;20043;-70
2022/06/26 11:46:42;;;;;;;1.10;0.55;;;28.40;66.50;;;;;;4933789;28;20071;-71
2022/06/26 11:49:12;;;;;;;1.95;0.70;;;28.50;64.60;;;;;;4954532;28;20081;-64
2022/06/26 11:51:38;;;;;;;0.98;0.55;;;28.60;67.00;;;;;;4955115;28;20039;-64
2022/06/26 11:54:04;;;;;;;4.80;0.98;;;28.60;63.20;;;;;;4949907;28;20115;-64
2022/06/26 11:56:30;;;;;;;1.77;0.63;;;28.70;66.40;;;;;;4943263;28;20035;-65
2022/06/26 11:58:58;;;;;;;1.60;0.60;;;28.70;68.80;;;;;;4954881;28;20102;-64
2022/06/26 12:01:32;;;;;;;1.95;0.60;;;28.80;65.40;;;;;;4951946;28;20039;-64
2022/06/26 12:03:58;;;;;;;2.17;0.70;;;28.80;69.50;;;;;;4958267;28;20027;-63
2022/06/26 12:06:35;;;;;;;1.23;0.50;;;28.90;65.90;;;;;;4955849;28;20038;-64
2022/06/26 12:09:15;;;;;;;2.72;0.80;;;28.90;64.10;;;;;;4955945;28;20047;-70
2022/06/26 12:11:42;;;;;;;1.67;0.90;;;29.00;69.40;;;;;;4957136;28;20023;-70
2022/06/26 12:14:12;;;;;;;1.50;0.77;;;29.20;70.30;;;;;;4956864;28;20089;-70
2022/06/26 12:17:07;;;;;;;1.38;0.85;;;29.20;69.60;;;;;;4957563;28;20034;-70
2022/06/26 12:19:39;;;;;;;1.20;0.80;;;29.10;66.00;;;;;;4948586;28;20149;-70
2022/06/26 12:22:05;;;;;;;1.25;1.02;;;29.10;65.10;;;;;;4959306;28;20117;-71
2022/06/26 12:24:31;;;;;;;1.77;0.82;;;29.10;65.80;;;;;;4956867;28;22571;-70
2022/06/26 12:26:57;;;;;;;0.80;0.70;;;29.10;65.20;;;;;;4953508;28;20379;-69
2022/06/26 12:29:25;;;;;;;1.58;0.85;;;29.10;64.10;;;;;;4961726;28;20043;-69
2022/06/26 12:31:51;;;;;;;0.70;0.70;;;29.20;66.70;;;;;;4957256;28;20028;-70
2022/06/26 12:34:17;;;;;;;6.32;0.80;;;29.20;67.40;;;;;;4960593;28;20174;-70
2022/06/26 12:36:43;;;;;;;2.35;0.95;;;29.20;70.20;;;;;;4953549;28;20047;-71
2022/06/26 12:39:09;;;;;;;1.55;0.95;;;29.30;69.80;;;;;;4959725;28;20125;-70
2022/06/26 12:41:35;;;;;;;1.15;0.80;;;29.40;65.80;;;;;;4957590;28;20062;-70
2022/06/26 12:44:04;;;;;;;2.10;1.00;;;29.50;69.20;;;;;;4959460;28;20392;-70
2022/06/26 12:46:31;;;;;;;4.63;1.83;;;29.50;66.70;;;;;;4957715;28;20464;-65
2022/06/26 12:48:58;;;;;;;2.55;0.80;;;29.60;68.60;;;;;;4954162;28;20075;-64
2022/06/26 12:51:24;;;;;;;2.20;0.88;;;29.70;70.70;;;;;;4957915;28;20030;-64
2022/06/26 12:53:50;;;;;;;3.53;1.10;;;29.70;65.10;;;;;;4955755;28;20307;-64
2022/06/26 12:56:16;;;;;;;4.25;1.05;;;29.70;63.20;;;;;;4952043;28;20062;-65
2022/06/26 12:58:41;;;;;;;1.98;0.95;;;29.80;62.00;;;;;;4952398;28;20126;-64